Time;durP1;ratioP1;P1;durP2;ratioP2;P2;SDS_P1;SDS_P2;PMS_P1;PMS_P2;Temp;Humidity;BMP_temperature;BMP_pressure;BME280_temperature;BME280_humidity;BME280_pressure;Samples;Min_cycle;Max_cycle;Signal;HPM_P1;HPM_P2
2024/04/07 00:00:24;;;;;;;6.47;2.72;;;18.10;98.00;;;;;;5018739;28;20112;-76
2024/04/07 00:02:52;;;;;;;6.05;2.83;;;18.10;98.20;;;;;;5018511;28;20056;-76
2024/04/07 00:05:21;;;;;;;6.22;2.42;;;18.10;98.40;;;;;;5017489;28;20415;-76
2024/04/07 00:07:47;;;;;;;7.20;2.42;;;18.10;98.50;;;;;;5018248;28;20140;-76
2024/04/07 00:10:13;;;;;;;5.40;2.42;;;18.10;98.50;;;;;;5015519;28;20113;-76
2024/04/07 00:12:39;;;;;;;4.53;2.55;;;18.20;98.50;;;;;;5013933;28;20021;-76
2024/04/07 00:15:05;;;;;;;7.15;2.50;;;18.20;98.30;;;;;;5014842;28;20018;-76
2024/04/07 00:17:33;;;;;;;7.68;2.60;;;18.30;98.30;;;;;;5015075;28;20121;-76
2024/04/07 00:20:00;;;;;;;6.53;2.90;;;18.30;98.30;;;;;;5014430;28;20105;-76
2024/04/07 00:22:26;;;;;;;8.07;2.60;;;18.40;98.40;;;;;;5014942;28;20034;-76
2024/04/07 00:24:52;;;;;;;5.55;2.58;;;18.40;98.50;;;;;;5013911;28;20060;-75
2024/04/07 00:27:19;;;;;;;7.05;2.53;;;18.40;98.60;;;;;;5014849;28;20025;-76
2024/04/07 00:29:46;;;;;;;7.25;2.83;;;18.40;98.60;;;;;;5015137;28;20022;-76
2024/04/07 00:32:11;;;;;;;5.82;2.33;;;18.40;98.70;;;;;;5014674;28;20025;-76
2024/04/07 00:34:37;;;;;;;4.63;2.55;;;18.40;98.90;;;;;;5014644;28;20028;-76
2024/04/07 00:37:05;;;;;;;6.60;3.13;;;18.30;99.00;;;;;;5014779;28;20475;-76
2024/04/07 00:39:31;;;;;;;8.27;3.00;;;18.30;98.90;;;;;;5014043;28;20017;-76
2024/04/07 00:41:56;;;;;;;6.82;2.90;;;18.30;98.90;;;;;;5015347;28;20476;-75
2024/04/07 00:44:22;;;;;;;5.15;3.03;;;18.30;99.00;;;;;;5014062;28;20026;-75
2024/04/07 00:46:48;;;;;;;5.32;3.13;;;18.30;99.10;;;;;;5015247;28;20057;-76
2024/04/07 00:49:14;;;;;;;8.40;2.90;;;18.30;99.20;;;;;;5013925;28;20404;-76
2024/04/07 00:51:40;;;;;;;5.63;2.83;;;18.30;99.20;;;;;;5013774;28;20052;-76
2024/04/07 00:54:06;;;;;;;5.80;3.10;;;18.30;99.30;;;;;;5014218;28;20108;-76
2024/04/07 00:56:34;;;;;;;6.22;3.33;;;18.30;99.40;;;;;;5014275;28;20029;-76
2024/04/07 00:59:01;;;;;;;5.18;3.08;;;18.30;99.40;;;;;;5014140;28;20028;-76
2024/04/07 01:01:26;;;;;;;10.18;3.20;;;18.30;99.50;;;;;;5014492;28;20041;-76
2024/04/07 01:03:52;;;;;;;6.43;3.05;;;18.30;99.40;;;;;;5014037;28;20471;-75
2024/04/07 01:06:18;;;;;;;7.15;2.90;;;18.30;99.40;;;;;;5014262;28;20069;-76
2024/04/07 01:08:44;;;;;;;6.10;3.38;;;18.30;99.30;;;;;;5013918;28;20065;-76
2024/04/07 01:11:10;;;;;;;8.30;2.90;;;18.30;99.30;;;;;;5013892;28;20399;-76
2024/04/07 01:13:36;;;;;;;6.97;3.17;;;18.30;99.10;;;;;;5013960;28;20018;-76
2024/04/07 01:16:02;;;;;;;6.28;2.95;;;18.30;99.00;;;;;;5013285;28;20038;-75
2024/04/07 01:18:27;;;;;;;6.95;3.00;;;18.30;99.00;;;;;;5015020;28;20472;-75
2024/04/07 01:20:54;;;;;;;6.10;2.95;;;18.30;98.90;;;;;;5012399;28;20030;-75
2024/04/07 01:23:19;;;;;;;6.65;2.50;;;18.30;98.80;;;;;;5014373;28;20026;-76
2024/04/07 01:25:45;;;;;;;5.70;2.92;;;18.30;98.80;;;;;;5013093;28;20041;-76
2024/04/07 01:28:13;;;;;;;9.02;3.05;;;18.30;98.80;;;;;;5014672;28;20029;-76
2024/04/07 01:30:40;;;;;;;6.72;3.00;;;18.30;98.70;;;;;;5012735;28;20032;-76
2024/04/07 01:33:06;;;;;;;6.60;2.78;;;18.30;98.60;;;;;;5014617;28;20022;-77
2024/04/07 01:35:31;;;;;;;4.75;2.40;;;18.30;98.50;;;;;;5013024;28;20113;-76
2024/04/07 01:37:57;;;;;;;7.45;2.50;;;18.30;98.40;;;;;;5014120;28;20499;-76
2024/04/07 01:40:23;;;;;;;4.53;2.00;;;18.30;98.20;;;;;;5011526;28;20025;-76
2024/04/07 01:42:52;;;;;;;7.22;2.15;;;18.30;98.10;;;;;;5014336;28;20444;-76
2024/04/07 01:45:19;;;;;;;7.82;2.20;;;18.30;98.00;;;;;;5012822;28;20026;-75
2024/04/07 01:47:44;;;;;;;6.93;1.98;;;18.30;98.00;;;;;;5013030;28;20097;-75
2024/04/07 01:50:10;;;;;;;7.15;2.10;;;18.30;97.90;;;;;;5012533;28;20061;-76
2024/04/07 01:52:39;;;;;;;6.97;1.88;;;18.30;97.90;;;;;;5013501;28;20014;-75
2024/04/07 01:55:05;;;;;;;4.90;1.60;;;18.30;97.90;;;;;;5013090;28;20026;-75
2024/04/07 01:57:31;;;;;;;4.80;1.40;;;18.20;97.90;;;;;;5013331;28;20068;-75
2024/04/07 01:59:57;;;;;;;5.50;1.40;;;18.20;98.00;;;;;;5013580;28;20034;-76
2024/04/07 02:02:22;;;;;;;2.85;1.02;;;18.10;98.00;;;;;;5013065;28;20014;-75
2024/04/07 02:04:49;;;;;;;3.00;1.30;;;18.10;98.10;;;;;;5011814;28;20112;-75
2024/04/07 02:07:18;;;;;;;3.35;1.08;;;18.00;98.20;;;;;;5013041;28;20030;-75
2024/04/07 02:09:47;;;;;;;6.10;1.30;;;18.00;98.30;;;;;;5012997;28;20037;-76
2024/04/07 02:12:13;;;;;;;4.13;1.27;;;17.90;98.60;;;;;;5013156;28;20160;-76
2024/04/07 02:14:39;;;;;;;6.05;1.23;;;17.90;98.50;;;;;;5013102;28;20022;-75
2024/04/07 02:17:05;;;;;;;5.15;1.08;;;17.80;98.50;;;;;;5012856;28;20026;-75
2024/04/07 02:19:30;;;;;;;4.00;1.20;;;17.80;98.60;;;;;;5013106;28;20021;-77
2024/04/07 02:21:56;;;;;;;4.10;1.30;;;17.80;98.70;;;;;;5012960;28;20014;-75
2024/04/07 02:24:22;;;;;;;4.30;1.20;;;17.70;98.80;;;;;;5012848;28;20430;-76
2024/04/07 02:26:47;;;;;;;4.47;1.50;;;17.70;99.00;;;;;;5012536;28;20025;-75
2024/04/07 02:29:14;;;;;;;3.47;1.30;;;17.70;99.10;;;;;;5013012;28;20183;-75
2024/04/07 02:31:39;;;;;;;4.18;1.30;;;17.60;99.20;;;;;;5010836;28;20361;-75
2024/04/07 02:34:08;;;;;;;3.00;1.35;;;17.60;99.30;;;;;;5012433;28;20033;-75
2024/04/07 02:36:34;;;;;;;2.95;1.27;;;17.50;99.40;;;;;;5013191;28;20030;-75
2024/04/07 02:39:00;;;;;;;5.00;1.50;;;17.50;99.50;;;;;;5012736;28;20018;-75
2024/04/07 02:41:26;;;;;;;5.20;1.30;;;17.40;99.60;;;;;;5012328;28;20147;-75
2024/04/07 02:43:51;;;;;;;5.63;1.60;;;17.40;99.70;;;;;;5012306;28;20053;-75
2024/04/07 02:49:01;;;;;;;5.47;1.30;;;17.40;99.80;;;;;;5012879;28;20037;-76
2024/04/07 02:51:27;;;;;;;4.65;1.20;;;17.30;99.90;;;;;;5012490;28;20026;-76
2024/04/07 02:53:52;;;;;;;5.63;1.60;;;17.30;99.90;;;;;;5012610;28;20022;-75
2024/04/07 02:56:20;;;;;;;5.57;1.35;;;17.30;99.90;;;;;;5012300;28;20509;-75
2024/04/07 02:58:46;;;;;;;2.17;1.00;;;17.30;99.90;;;;;;5012609;28;20092;-76
2024/04/07 03:01:11;;;;;;;5.03;1.80;;;17.20;99.90;;;;;;5012339;28;20467;-76
2024/04/07 03:03:37;;;;;;;3.05;1.00;;;17.20;99.90;;;;;;5012220;28;20109;-75
2024/04/07 03:06:08;;;;;;;4.07;1.27;;;17.20;99.90;;;;;;5010218;28;20084;-75
2024/04/07 03:08:34;;;;;;;;;;;17.20;99.80;;;;;;5012531;28;20029;-75
2024/04/07 03:11:01;;;;;;;3.78;1.15;;;17.10;99.80;;;;;;5012466;28;19940;-76
2024/04/07 03:13:27;;;;;;;3.30;0.90;;;17.10;99.70;;;;;;5012393;28;20096;-76
2024/04/07 03:15:53;;;;;;;5.13;1.00;;;17.10;99.70;;;;;;5011899;28;20046;-77
2024/04/07 03:18:19;;;;;;;3.95;1.10;;;17.10;99.60;;;;;;5012077;28;20170;-77
2024/04/07 03:20:46;;;;;;;3.95;1.08;;;17.00;99.50;;;;;;5011565;28;20487;-76
2024/04/07 03:23:11;;;;;;;4.43;0.90;;;17.00;99.50;;;;;;5012858;28;20026;-77
2024/04/07 03:25:37;;;;;;;5.47;1.00;;;17.00;99.30;;;;;;5011306;28;20075;-76
2024/04/07 03:28:04;;;;;;;3.40;1.25;;;17.00;99.40;;;;;;5012844;28;20026;-76
2024/04/07 03:30:29;;;;;;;3.03;1.10;;;17.00;99.10;;;;;;5011425;28;20109;-76
2024/04/07 03:32:55;;;;;;;3.00;0.80;;;16.90;99.00;;;;;;5011099;28;20052;-77
2024/04/07 03:35:21;;;;;;;2.78;0.73;;;16.90;98.90;;;;;;5010117;28;20104;-76
2024/04/07 03:37:46;;;;;;;2.90;0.90;;;16.90;98.90;;;;;;5012437;28;20030;-76
2024/04/07 03:40:12;;;;;;;1.77;0.52;;;16.90;98.80;;;;;;5011515;28;20029;-76
2024/04/07 03:42:38;;;;;;;3.35;0.80;;;16.90;98.80;;;;;;5012855;28;20022;-76
2024/04/07 03:45:04;;;;;;;7.32;1.10;;;16.90;98.70;;;;;;5012559;28;20034;-76
2024/04/07 03:47:30;;;;;;;2.92;0.90;;;16.90;98.70;;;;;;5016341;28;20022;-77
2024/04/07 03:49:56;;;;;;;3.78;1.17;;;16.90;98.70;;;;;;5015071;28;20036;-77
2024/04/07 03:52:27;;;;;;;3.60;0.90;;;16.90;98.60;;;;;;5016049;28;20476;-77
2024/04/07 03:54:56;;;;;;;4.60;0.90;;;16.90;98.50;;;;;;5013756;28;20026;-77
2024/04/07 03:57:21;;;;;;;3.08;0.80;;;16.90;98.40;;;;;;5015414;28;20070;-77
2024/04/07 03:59:47;;;;;;;2.22;0.75;;;16.90;98.20;;;;;;5014636;28;20188;-76
2024/04/07 04:02:28;;;;;;;3.58;0.90;;;16.90;98.00;;;;;;5014965;28;20018;-76
2024/04/07 04:04:57;;;;;;;3.90;0.80;;;17.00;97.90;;;;;;5013332;28;20034;-76
2024/04/07 04:07:26;;;;;;;3.38;0.93;;;17.00;97.80;;;;;;5015192;28;20041;-79
2024/04/07 04:09:52;;;;;;;1.05;0.60;;;16.90;97.60;;;;;;5015257;28;20033;-79
2024/04/07 04:12:18;;;;;;;3.72;0.82;;;17.00;97.30;;;;;;5014991;28;20025;-76
2024/04/07 04:14:44;;;;;;;2.13;0.60;;;17.00;97.10;;;;;;5015825;28;20131;-76
2024/04/07 04:17:11;;;;;;;2.47;0.70;;;17.00;97.10;;;;;;5014404;28;20079;-77
2024/04/07 04:19:36;;;;;;;2.30;0.55;;;17.00;96.80;;;;;;5015558;28;20167;-79
2024/04/07 04:22:02;;;;;;;3.75;0.90;;;17.00;96.70;;;;;;5014232;28;20523;-76
2024/04/07 04:24:28;;;;;;;2.40;0.70;;;17.00;96.50;;;;;;5015256;28;20096;-76
2024/04/07 04:26:54;;;;;;;1.65;0.50;;;17.00;96.30;;;;;;5014386;28;20487;-78
2024/04/07 04:29:21;;;;;;;2.30;0.55;;;17.00;96.10;;;;;;5015508;28;20050;-76
2024/04/07 04:31:47;;;;;;;1.65;0.50;;;17.00;95.90;;;;;;5014307;28;20084;-77
2024/04/07 04:34:12;;;;;;;1.73;0.57;;;17.10;95.80;;;;;;5014977;28;20460;-77
2024/04/07 04:36:38;;;;;;;4.72;0.70;;;17.10;95.60;;;;;;5013906;28;20038;-78
2024/04/07 04:39:06;;;;;;;0.85;0.47;;;17.10;95.30;;;;;;5015043;28;20102;-79
2024/04/07 04:41:32;;;;;;;1.55;0.50;;;17.10;95.30;;;;;;5014260;28;20026;-77
2024/04/07 04:44:03;;;;;;;1.80;0.43;;;17.10;95.10;;;;;;5014948;28;20030;-77
2024/04/07 04:46:29;;;;;;;1.42;0.45;;;17.10;94.90;;;;;;5014313;28;20088;-77
2024/04/07 04:48:54;;;;;;;3.33;0.68;;;17.10;94.90;;;;;;5014766;28;20026;-77
2024/04/07 04:51:20;;;;;;;2.40;0.50;;;17.10;94.80;;;;;;5014243;28;20022;-78
2024/04/07 04:53:46;;;;;;;2.45;0.40;;;17.10;94.60;;;;;;5014684;28;20101;-77
2024/04/07 04:56:12;;;;;;;2.55;0.57;;;17.10;94.50;;;;;;5012525;28;20432;-77
2024/04/07 04:58:37;;;;;;;1.98;0.75;;;17.10;94.50;;;;;;5014667;28;20556;-78
2024/04/07 05:01:13;;;;;;;1.55;0.38;;;17.10;94.40;;;;;;5014779;28;20092;-77
2024/04/07 05:03:39;;;;;;;0.28;0.20;;;17.00;94.50;;;;;;5014579;28;20021;-77
2024/04/07 05:06:12;;;;;;;1.58;0.50;;;17.00;94.10;;;;;;5014762;28;20042;-78
2024/04/07 05:08:42;;;;;;;2.10;0.40;;;17.00;94.10;;;;;;5013221;28;20120;-81
2024/04/07 05:11:07;;;;;;;1.70;0.55;;;17.00;94.00;;;;;;5014121;28;20022;-78
2024/04/07 05:13:34;;;;;;;2.08;0.50;;;17.00;93.90;;;;;;5014400;28;20037;-78
2024/04/07 05:16:00;;;;;;;2.88;0.52;;;17.00;93.80;;;;;;5014467;28;20033;-79
2024/04/07 05:18:26;;;;;;;1.13;0.50;;;17.00;93.80;;;;;;5014335;28;20056;-77
2024/04/07 05:20:55;;;;;;;1.23;0.40;;;17.00;93.80;;;;;;5014219;28;20076;-77
2024/04/07 05:23:21;;;;;;;0.75;0.20;;;17.00;93.80;;;;;;5014178;28;20026;-79
2024/04/07 05:25:47;;;;;;;1.10;0.38;;;17.00;93.80;;;;;;5014404;28;20026;-77
2024/04/07 05:28:12;;;;;;;1.73;0.40;;;17.00;93.70;;;;;;5013564;28;20022;-77
2024/04/07 05:30:41;;;;;;;2.88;0.43;;;17.00;93.70;;;;;;5013734;28;20046;-78
2024/04/07 05:33:07;;;;;;;3.00;0.57;;;17.00;93.70;;;;;;5014216;28;20053;-77
2024/04/07 05:35:33;;;;;;;1.55;0.30;;;17.00;93.80;;;;;;5012735;28;20065;-77
2024/04/07 05:37:59;;;;;;;2.20;0.40;;;17.00;93.80;;;;;;5014535;28;20392;-78
2024/04/07 05:40:25;;;;;;;1.52;0.57;;;17.00;93.90;;;;;;5012929;28;20022;-77
2024/04/07 05:42:52;;;;;;;2.22;0.50;;;17.00;94.00;;;;;;5013687;28;20084;-78
2024/04/07 05:45:17;;;;;;;1.35;0.50;;;17.00;94.00;;;;;;5012862;28;20526;-77
2024/04/07 05:47:51;;;;;;;1.20;0.40;;;16.90;94.00;;;;;;5013839;28;20053;-77
2024/04/07 05:50:17;;;;;;;2.80;0.63;;;16.90;94.10;;;;;;5012670;28;20104;-77
2024/04/07 05:52:43;;;;;;;0.38;0.32;;;16.90;94.50;;;;;;5014185;28;20057;-78
2024/04/07 05:55:09;;;;;;;1.23;0.40;;;16.90;94.30;;;;;;5013302;28;20025;-77
2024/04/07 05:57:38;;;;;;;1.23;0.50;;;16.90;94.30;;;;;;5013550;28;20034;-78
2024/04/07 06:00:08;;;;;;;1.55;0.43;;;16.90;94.40;;;;;;5013521;28;20022;-78
2024/04/07 06:02:37;;;;;;;0.82;0.30;;;16.90;94.40;;;;;;5013508;28;20483;-78
2024/04/07 06:05:03;;;;;;;3.35;0.80;;;16.90;94.50;;;;;;5013024;28;20029;-78
2024/04/07 06:07:30;;;;;;;1.58;0.50;;;16.90;94.60;;;;;;5012375;28;20089;-77
2024/04/07 06:09:55;;;;;;;2.88;0.50;;;16.90;94.60;;;;;;5012916;28;20069;-78
2024/04/07 06:12:22;;;;;;;1.85;0.40;;;16.80;94.70;;;;;;5013089;28;20435;-77
2024/04/07 06:14:47;;;;;;;1.58;0.40;;;16.80;94.70;;;;;;5013144;28;20392;-78
2024/04/07 06:17:14;;;;;;;1.73;0.60;;;16.80;94.80;;;;;;5012131;28;20037;-78
2024/04/07 06:19:40;;;;;;;2.55;0.52;;;16.80;95.00;;;;;;5012926;28;20030;-77
2024/04/07 06:22:06;;;;;;;3.67;0.50;;;16.70;95.00;;;;;;5010655;28;20372;-77
2024/04/07 06:24:34;;;;;;;1.90;0.77;;;16.70;95.10;;;;;;5012719;28;20111;-78
2024/04/07 06:27:00;;;;;;;3.53;0.93;;;16.70;95.20;;;;;;5011648;28;20034;-77
2024/04/07 06:29:26;;;;;;;3.05;0.60;;;16.70;95.30;;;;;;5012720;28;20026;-77
2024/04/07 06:31:51;;;;;;;1.20;0.55;;;16.60;95.30;;;;;;5010541;28;20033;-77
2024/04/07 06:34:17;;;;;;;3.90;1.02;;;16.60;95.40;;;;;;5012859;28;20026;-78
2024/04/07 06:36:43;;;;;;;2.67;0.70;;;16.60;95.50;;;;;;5011710;28;20036;-78
2024/04/07 06:39:09;;;;;;;2.00;0.57;;;16.60;95.50;;;;;;5012610;28;20054;-77
2024/04/07 06:41:34;;;;;;;1.60;0.75;;;16.60;95.60;;;;;;5010698;28;20024;-77
2024/04/07 06:44:01;;;;;;;2.88;0.75;;;16.60;95.70;;;;;;5013002;28;20022;-77
2024/04/07 06:46:27;;;;;;;2.05;0.60;;;16.60;95.90;;;;;;5012025;28;20022;-78
2024/04/07 06:48:53;;;;;;;3.78;0.80;;;16.60;96.00;;;;;;5013193;28;20029;-77
2024/04/07 06:51:19;;;;;;;2.15;0.50;;;16.70;96.10;;;;;;5011817;28;20164;-77
2024/04/07 06:53:44;;;;;;;2.13;0.68;;;16.60;96.00;;;;;;5012430;28;20109;-77
2024/04/07 06:56:10;;;;;;;2.17;0.60;;;16.60;96.00;;;;;;5011445;28;20167;-77
2024/04/07 06:58:36;;;;;;;1.83;0.55;;;16.60;96.10;;;;;;5012437;28;20018;-78
2024/04/07 07:01:01;;;;;;;1.63;0.47;;;16.60;96.10;;;;;;5011412;28;20034;-77
2024/04/07 07:03:30;;;;;;;2.75;0.93;;;16.60;96.10;;;;;;5012177;28;20025;-77
2024/04/07 07:05:56;;;;;;;2.42;0.75;;;16.60;96.20;;;;;;5011781;28;20044;-78
2024/04/07 07:08:21;;;;;;;4.45;1.05;;;16.60;96.30;;;;;;5012319;28;20034;-77
2024/04/07 07:11:00;;;;;;;4.25;0.85;;;16.70;96.40;;;;;;5012184;28;20208;-77
2024/04/07 07:13:30;;;;;;;2.30;0.93;;;16.80;96.50;;;;;;5012559;28;20029;-77
2024/04/07 07:15:57;;;;;;;1.35;0.50;;;16.80;96.60;;;;;;5011908;28;20038;-77
2024/04/07 07:18:23;;;;;;;3.85;0.95;;;16.90;96.60;;;;;;5012366;28;20506;-77
2024/04/07 07:20:49;;;;;;;1.30;0.50;;;16.90;96.50;;;;;;5015639;28;20018;-77
2024/04/07 07:23:15;;;;;;;2.80;0.82;;;16.90;96.50;;;;;;5016074;28;20538;-77
2024/04/07 07:25:42;;;;;;;2.63;0.70;;;16.90;96.50;;;;;;5016487;28;20021;-77
2024/04/07 07:28:08;;;;;;;4.15;0.73;;;16.80;96.50;;;;;;5016213;28;20503;-77
2024/04/07 07:30:37;;;;;;;3.15;0.98;;;16.80;96.60;;;;;;5016982;28;20033;-78
2024/04/07 07:33:03;;;;;;;1.77;0.70;;;16.80;96.70;;;;;;5016102;28;20515;-78
2024/04/07 07:35:29;;;;;;;3.85;1.20;;;16.70;96.80;;;;;;5016935;28;20026;-78
2024/04/07 07:37:55;;;;;;;3.33;0.85;;;16.70;96.90;;;;;;5015851;28;20030;-78
2024/04/07 07:40:21;;;;;;;2.28;0.77;;;16.70;96.90;;;;;;5016660;28;20025;-78
2024/04/07 07:42:47;;;;;;;1.10;0.70;;;16.70;97.00;;;;;;5015005;28;20022;-77
2024/04/07 07:45:13;;;;;;;3.83;0.80;;;16.70;97.10;;;;;;5016275;28;20036;-77
2024/04/07 07:47:39;;;;;;;2.47;0.75;;;16.70;97.10;;;;;;5014613;28;20030;-77
2024/04/07 07:50:05;;;;;;;3.35;0.90;;;16.70;97.20;;;;;;5015436;28;20034;-77
2024/04/07 07:52:30;;;;;;;3.53;1.25;;;16.70;97.50;;;;;;5015606;28;20491;-77
2024/04/07 07:54:56;;;;;;;3.20;0.77;;;16.90;97.70;;;;;;5015296;28;20457;-79
2024/04/07 07:57:21;;;;;;;5.93;1.10;;;17.00;97.70;;;;;;5014334;28;20479;-77
2024/04/07 07:59:47;;;;;;;3.92;0.65;;;17.10;97.60;;;;;;5013918;28;20137;-77
2024/04/07 08:02:13;;;;;;;3.50;0.70;;;17.30;97.60;;;;;;5015580;28;20061;-77
2024/04/07 08:04:38;;;;;;;2.72;0.60;;;17.40;97.50;;;;;;5014829;28;20017;-77
2024/04/07 08:07:04;;;;;;;4.15;1.02;;;17.50;97.50;;;;;;5015573;28;20073;-77
2024/04/07 08:09:29;;;;;;;3.30;0.80;;;17.60;97.40;;;;;;5013876;28;20054;-77
2024/04/07 08:11:56;;;;;;;3.63;1.17;;;17.80;97.30;;;;;;5013391;28;20058;-77
2024/04/07 08:14:21;;;;;;;4.15;0.95;;;17.90;97.30;;;;;;5015140;28;20088;-79
2024/04/07 08:16:47;;;;;;;5.20;1.25;;;18.00;97.20;;;;;;5015298;28;20487;-79
2024/04/07 08:19:13;;;;;;;5.38;1.13;;;18.00;96.90;;;;;;5014841;28;20368;-77
2024/04/07 08:21:39;;;;;;;3.67;1.00;;;18.00;96.70;;;;;;5014596;28;20021;-78
2024/04/07 08:24:05;;;;;;;5.07;0.98;;;18.00;96.70;;;;;;5014831;28;20076;-79
2024/04/07 08:26:31;;;;;;;2.00;0.65;;;18.10;96.70;;;;;;5014547;28;20396;-77
2024/04/07 08:28:56;;;;;;;4.72;0.80;;;18.10;96.90;;;;;;5014811;28;20021;-77
2024/04/07 08:31:22;;;;;;;2.97;0.88;;;18.20;96.80;;;;;;5013427;28;20030;-77
2024/04/07 08:33:48;;;;;;;2.60;0.90;;;18.30;96.70;;;;;;5014822;28;20017;-77
2024/04/07 08:36:13;;;;;;;5.28;1.35;;;18.30;96.80;;;;;;5013947;28;20040;-77
2024/04/07 08:38:41;;;;;;;3.15;0.88;;;18.40;96.70;;;;;;5014722;28;20018;-77
2024/04/07 08:41:10;;;;;;;4.25;0.95;;;18.40;96.80;;;;;;5014170;28;20029;-77
2024/04/07 08:43:38;;;;;;;3.33;0.80;;;18.50;96.80;;;;;;5014659;28;20017;-77
2024/04/07 08:46:10;;;;;;;3.13;0.90;;;18.60;96.90;;;;;;5014031;28;20056;-78
2024/04/07 08:48:45;;;;;;;3.78;1.30;;;18.70;96.70;;;;;;5014889;28;20025;-78
2024/04/07 08:51:12;;;;;;;3.50;0.98;;;18.80;96.60;;;;;;5014263;28;20033;-79
2024/04/07 08:53:42;;;;;;;4.95;1.52;;;18.80;96.20;;;;;;5014080;28;20029;-79
2024/04/07 08:56:08;;;;;;;3.67;1.08;;;18.80;96.20;;;;;;5012467;28;20120;-77
2024/04/07 08:58:35;;;;;;;3.78;1.10;;;18.80;96.20;;;;;;5015458;28;20026;-77
2024/04/07 09:01:02;;;;;;;4.57;0.93;;;18.90;96.40;;;;;;5013793;28;20517;-78
2024/04/07 09:03:29;;;;;;;4.72;1.00;;;18.90;96.10;;;;;;5014650;28;20029;-77
2024/04/07 09:05:56;;;;;;;4.32;0.90;;;19.00;96.00;;;;;;5012323;28;20575;-78
2024/04/07 09:08:22;;;;;;;4.78;1.02;;;19.10;96.10;;;;;;5014901;28;20037;-78
2024/04/07 09:10:47;;;;;;;3.08;0.88;;;19.10;96.00;;;;;;5013850;28;20026;-77
2024/04/07 09:13:15;;;;;;;3.25;0.95;;;19.20;95.80;;;;;;5014121;28;20145;-77
2024/04/07 09:15:40;;;;;;;7.10;1.30;;;19.20;95.80;;;;;;5014169;28;20060;-77
2024/04/07 09:18:06;;;;;;;2.78;0.80;;;19.30;95.90;;;;;;5013539;28;20057;-79
2024/04/07 09:20:32;;;;;;;3.80;1.15;;;19.40;95.70;;;;;;5013795;28;20026;-78
2024/04/07 09:23:01;;;;;;;3.95;1.13;;;19.40;95.50;;;;;;5013267;28;20026;-77
2024/04/07 09:25:27;;;;;;;3.05;0.80;;;19.30;95.30;;;;;;5013763;28;20026;-77
2024/04/07 09:27:53;;;;;;;2.60;1.00;;;19.30;95.10;;;;;;5013005;28;20045;-78
2024/04/07 09:30:18;;;;;;;4.82;1.33;;;19.20;95.10;;;;;;5012503;28;20028;-78
2024/04/07 09:32:44;;;;;;;5.03;0.90;;;19.20;95.30;;;;;;5012762;28;20529;-78
2024/04/07 09:35:09;;;;;;;5.97;1.05;;;19.10;94.80;;;;;;5013711;28;20022;-78
2024/04/07 09:37:39;;;;;;;3.78;1.23;;;19.10;94.70;;;;;;5011319;28;20079;-78
2024/04/07 09:40:05;;;;;;;2.65;0.88;;;19.00;94.70;;;;;;5013755;28;20460;-77
2024/04/07 09:42:31;;;;;;;4.43;1.15;;;19.00;94.80;;;;;;5012169;28;20014;-80
2024/04/07 09:44:59;;;;;;;4.93;1.08;;;19.10;94.90;;;;;;5014228;28;20093;-78
2024/04/07 09:47:27;;;;;;;3.38;0.80;;;19.10;94.90;;;;;;5012794;28;20030;-78
2024/04/07 09:50:02;;;;;;;2.00;0.90;;;19.20;95.00;;;;;;5013183;28;20029;-77
2024/04/07 09:52:32;;;;;;;5.68;1.42;;;19.30;94.80;;;;;;5011110;28;20165;-77
2024/04/07 09:55:04;;;;;;;2.90;0.80;;;19.30;94.70;;;;;;5014384;28;20148;-78
2024/04/07 09:57:30;;;;;;;2.15;0.98;;;19.30;94.60;;;;;;5012324;28;20036;-77
2024/04/07 09:59:57;;;;;;;2.85;0.95;;;19.40;94.70;;;;;;5011803;28;20045;-77
2024/04/07 10:02:23;;;;;;;2.97;1.00;;;19.40;94.50;;;;;;5012315;28;20029;-76
2024/04/07 10:04:50;;;;;;;3.70;1.13;;;19.40;94.30;;;;;;5013053;28;20021;-77
2024/04/07 10:07:17;;;;;;;3.03;0.98;;;19.40;94.20;;;;;;5012603;28;20041;-77
2024/04/07 10:09:44;;;;;;;3.67;0.85;;;19.40;94.10;;;;;;5013474;28;20040;-77
2024/04/07 10:12:09;;;;;;;4.03;1.13;;;19.40;93.90;;;;;;5012198;28;20026;-76
2024/04/07 10:14:44;;;;;;;2.33;0.88;;;19.40;93.90;;;;;;5012910;28;20026;-77
2024/04/07 10:17:11;;;;;;;5.00;1.60;;;19.40;94.00;;;;;;5011989;28;20029;-77
2024/04/07 10:19:53;;;;;;;2.38;0.90;;;19.30;94.00;;;;;;5013002;28;20022;-76
2024/04/07 10:22:20;;;;;;;5.10;0.90;;;19.40;93.90;;;;;;5012142;28;20018;-76
2024/04/07 10:24:51;;;;;;;4.00;1.38;;;19.30;93.80;;;;;;5012643;28;20018;-76
2024/04/07 10:27:26;;;;;;;4.10;1.17;;;19.30;94.10;;;;;;5012727;28;20044;-78
2024/04/07 10:29:54;;;;;;;2.17;0.95;;;19.50;94.30;;;;;;5012480;28;20087;-77
2024/04/07 10:32:27;;;;;;;2.60;0.85;;;19.70;94.00;;;;;;5011401;28;20030;-77
2024/04/07 10:35:09;;;;;;;4.35;1.48;;;19.80;94.00;;;;;;5012426;28;20029;-77
2024/04/07 10:37:37;;;;;;;3.45;1.20;;;20.00;93.90;;;;;;5011934;28;20113;-78
2024/04/07 10:40:08;;;;;;;3.42;1.20;;;20.20;93.70;;;;;;5012536;28;20030;-77
2024/04/07 10:42:35;;;;;;;4.32;0.95;;;20.30;93.20;;;;;;5012373;28;20026;-77
2024/04/07 10:45:02;;;;;;;2.83;0.95;;;20.30;92.70;;;;;;5012345;28;20049;-77
2024/04/07 10:47:28;;;;;;;1.75;0.70;;;20.40;92.40;;;;;;5012448;28;20022;-78
2024/04/07 10:49:54;;;;;;;1.35;0.68;;;20.40;92.10;;;;;;5012225;28;20503;-79
2024/04/07 10:52:20;;;;;;;2.75;1.10;;;20.50;91.80;;;;;;5012280;28;20391;-77
2024/04/07 10:54:46;;;;;;;2.45;0.70;;;20.60;91.70;;;;;;5011964;28;20025;-77
2024/04/07 10:57:15;;;;;;;2.03;0.80;;;20.70;91.40;;;;;;5012589;28;20026;-77
2024/04/07 10:59:42;;;;;;;1.60;0.70;;;20.80;91.40;;;;;;5012084;28;20026;-77
2024/04/07 11:02:08;;;;;;;2.78;0.80;;;21.00;91.30;;;;;;5011724;28;20014;-77
2024/04/07 11:04:37;;;;;;;3.00;0.90;;;21.20;91.20;;;;;;5010437;28;20030;-77
2024/04/07 11:07:04;;;;;;;2.72;0.93;;;21.30;90.50;;;;;;5011629;28;20026;-77
2024/04/07 11:09:31;;;;;;;3.13;0.90;;;21.30;90.30;;;;;;5012092;28;20030;-78
2024/04/07 11:11:58;;;;;;;3.45;1.00;;;21.40;89.80;;;;;;5011845;28;20037;-78
2024/04/07 11:14:28;;;;;;;1.60;0.85;;;21.50;89.50;;;;;;5012162;28;20026;-77
2024/04/07 11:16:54;;;;;;;2.47;0.95;;;21.40;87.40;;;;;;5011958;28;20089;-78
2024/04/07 11:19:24;;;;;;;1.73;0.70;;;21.30;87.50;;;;;;5011850;28;20476;-77
2024/04/07 11:21:53;;;;;;;1.58;0.77;;;21.40;88.10;;;;;;5012086;28;20030;-77
2024/04/07 11:24:19;;;;;;;2.55;0.77;;;21.50;87.50;;;;;;5012571;28;20160;-77
2024/04/07 11:26:47;;;;;;;2.92;1.02;;;21.60;87.20;;;;;;5011256;28;20502;-77
2024/04/07 11:29:14;;;;;;;2.90;0.90;;;21.60;85.90;;;;;;5011700;28;20108;-79
2024/04/07 11:31:40;;;;;;;1.67;0.70;;;21.70;85.50;;;;;;5011148;28;20025;-77
2024/04/07 11:34:06;;;;;;;1.67;0.60;;;21.70;85.00;;;;;;5012795;28;20105;-77
2024/04/07 11:36:32;;;;;;;2.63;0.80;;;21.80;84.90;;;;;;5011042;28;20033;-77
2024/04/07 11:38:58;;;;;;;1.42;0.52;;;21.80;85.20;;;;;;5011965;28;20026;-77
2024/04/07 11:41:23;;;;;;;2.65;0.60;;;22.00;85.20;;;;;;5011191;28;20077;-77
2024/04/07 11:43:49;;;;;;;3.08;1.00;;;22.00;85.40;;;;;;5011770;28;20136;-77
2024/04/07 11:46:15;;;;;;;3.38;0.93;;;22.10;84.00;;;;;;5011596;28;20037;-77
2024/04/07 11:48:42;;;;;;;1.77;0.85;;;22.20;83.60;;;;;;5012072;28;20041;-77
2024/04/07 11:51:08;;;;;;;3.58;0.93;;;22.30;83.00;;;;;;5011942;28;20033;-77
2024/04/07 11:53:34;;;;;;;3.30;1.15;;;22.40;82.40;;;;;;5012106;28;20018;-77
2024/04/07 11:56:00;;;;;;;2.58;0.60;;;22.40;81.60;;;;;;5011691;28;20034;-77
2024/04/07 11:58:25;;;;;;;3.05;0.70;;;22.50;81.50;;;;;;5011867;28;20505;-77
2024/04/07 12:00:52;;;;;;;3.13;1.00;;;22.50;81.20;;;;;;5011516;28;20479;-78
2024/04/07 12:03:21;;;;;;;2.28;0.85;;;22.50;80.60;;;;;;5011304;28;20026;-77
2024/04/07 12:05:47;;;;;;;2.40;0.90;;;22.60;80.40;;;;;;5011193;28;20038;-77
2024/04/07 12:08:12;;;;;;;2.40;0.80;;;22.60;80.40;;;;;;5014599;28;20114;-78
2024/04/07 12:10:38;;;;;;;3.10;0.88;;;22.60;79.70;;;;;;5013995;28;20025;-76
2024/04/07 12:13:03;;;;;;;2.00;0.98;;;22.50;79.10;;;;;;5014302;28;20511;-77
2024/04/07 12:15:30;;;;;;;6.35;1.70;;;22.50;78.70;;;;;;5015227;28;20026;-77
2024/04/07 12:17:55;;;;;;;3.15;1.10;;;22.60;78.80;;;;;;5014233;28;20030;-78
2024/04/07 12:20:21;;;;;;;3.47;1.30;;;22.70;78.60;;;;;;5013838;28;20029;-77
2024/04/07 12:22:47;;;;;;;1.88;0.80;;;22.70;77.80;;;;;;5014147;28;20022;-78
2024/04/07 12:25:12;;;;;;;2.13;0.90;;;22.70;77.50;;;;;;5015845;28;20475;-77
2024/04/07 12:27:38;;;;;;;2.47;1.05;;;22.60;77.00;;;;;;5014179;28;20026;-77
2024/04/07 12:30:04;;;;;;;1.67;0.75;;;22.50;76.60;;;;;;5014061;28;20038;-77
2024/04/07 12:32:30;;;;;;;2.58;0.80;;;22.50;75.80;;;;;;5013824;28;20488;-77
2024/04/07 12:34:55;;;;;;;2.60;0.70;;;22.50;75.80;;;;;;5015096;28;20022;-77
2024/04/07 12:37:21;;;;;;;3.30;0.93;;;22.50;76.20;;;;;;5012687;28;20037;-77
2024/04/07 12:39:48;;;;;;;3.00;0.80;;;22.60;76.20;;;;;;5015625;28;20096;-77
2024/04/07 12:42:14;;;;;;;1.88;0.70;;;22.60;76.00;;;;;;5013922;28;20053;-77
2024/04/07 12:44:40;;;;;;;3.15;1.10;;;22.70;75.40;;;;;;5014614;28;20037;-77
2024/04/07 12:47:06;;;;;;;4.15;1.23;;;22.80;75.80;;;;;;5013598;28;20483;-75